createdAt,value
2019-05-13T07:17:32.355Z,10.45
2019-05-13T07:20:02.309Z,8.43
2019-05-13T07:22:32.311Z,7.85
2019-05-13T07:56:42.655Z,9.88
2019-05-13T07:59:12.268Z,8.20
2019-05-13T08:01:41.921Z,10.48
2019-05-13T08:04:21.828Z,13.83
2019-05-13T08:06:42.592Z,9.25
2019-05-13T08:09:12.796Z,13.65
2019-05-13T08:11:59.942Z,7.97
2019-05-13T08:14:12.542Z,9.98
2019-05-13T08:16:42.689Z,10.78
2019-05-13T08:19:12.460Z,11.83
2019-05-13T08:21:41.892Z,9.65
2019-05-13T08:24:11.939Z,7.97
2019-05-13T08:26:44.907Z,8.28
2019-05-13T08:29:11.662Z,9.98
2019-05-13T08:31:41.208Z,7.75
2019-05-13T08:34:11.771Z,9.05
2019-05-13T08:36:42.581Z,11.15
2019-05-13T08:39:12.813Z,13.30
2019-05-13T08:41:42.447Z,13.03
2019-05-13T08:44:12.372Z,8.05
2019-05-13T08:46:41.727Z,10.30
2019-05-13T08:49:11.879Z,8.93
2019-05-13T08:51:42.236Z,9.58
2019-05-13T08:54:11.627Z,10.15
2019-05-13T08:56:41.597Z,10.63
2019-05-13T08:59:11.541Z,10.13
2019-05-13T09:01:42.735Z,11.08
2019-05-13T09:04:11.949Z,11.25
2019-05-13T09:06:41.865Z,11.73
2019-05-13T09:09:11.645Z,7.87
2019-05-13T09:11:42.198Z,7.97
2019-05-13T09:14:11.362Z,13.28
2019-05-13T09:16:41.883Z,10.38
2019-05-13T09:19:15.788Z,10.18
2019-05-13T09:21:42.370Z,13.22
2019-05-13T09:24:21.759Z,17.12
2019-05-13T09:26:42.269Z,12.82
2019-05-13T09:29:12.012Z,8.68
2019-05-13T09:31:41.672Z,10.98
2019-05-13T09:34:12.224Z,11.38
2019-05-13T09:36:41.871Z,9.38
2019-05-13T09:39:12.573Z,8.43
2019-05-13T09:41:44.510Z,10.00
2019-05-13T09:44:12.500Z,7.53
2019-05-13T09:46:42.474Z,9.15
2019-05-13T09:49:19.096Z,9.15
2019-05-13T09:51:42.175Z,9.28
2019-05-13T09:54:11.809Z,6.35
2019-05-13T09:56:41.418Z,7.83
2019-05-13T09:59:11.744Z,7.30
2019-05-13T10:01:42.499Z,6.72
2019-05-13T10:04:12.011Z,11.43
2019-05-13T10:06:42.087Z,7.83
2019-05-13T10:09:12.616Z,9.38
2019-05-13T10:11:41.880Z,7.55
2019-05-13T10:14:11.645Z,11.30
2019-05-13T10:16:42.520Z,8.68
2019-05-13T10:19:12.679Z,7.00
2019-05-13T10:21:42.324Z,6.75
2019-05-13T10:24:12.596Z,9.03
2019-05-13T10:26:43.024Z,8.63
2019-05-13T10:29:12.307Z,10.08
2019-05-13T10:31:42.070Z,7.08
2019-05-13T10:34:14.008Z,7.33
2019-05-13T10:36:42.400Z,8.40
2019-05-13T10:39:12.034Z,10.48
2019-05-13T10:41:42.292Z,9.35
2019-05-13T10:44:12.248Z,6.72
2019-05-13T10:46:42.523Z,8.95
2019-05-13T10:49:12.255Z,8.23
2019-05-13T10:51:42.012Z,7.87
2019-05-13T10:54:11.001Z,6.65
2019-05-13T10:56:42.474Z,6.50
2019-05-13T10:59:12.628Z,6.45
2019-05-13T11:01:42.683Z,5.85
2019-05-13T11:04:13.429Z,7.42
2019-05-13T11:06:42.054Z,7.70
2019-05-13T11:09:13.069Z,7.95
2019-05-13T11:11:42.301Z,6.28
2019-05-13T11:14:15.287Z,6.03
2019-05-13T11:16:42.610Z,7.15
2019-05-13T11:19:12.066Z,7.45
2019-05-13T11:21:43.361Z,6.87
2019-05-13T11:24:12.853Z,9.53
2019-05-13T11:26:42.378Z,6.00
2019-05-13T11:29:12.128Z,6.62
2019-05-13T11:31:42.899Z,8.48
2019-05-13T11:34:12.145Z,7.10
2019-05-13T11:36:43.110Z,7.28
2019-05-13T11:39:13.158Z,7.67
2019-05-13T11:41:42.949Z,6.30
2019-05-13T11:44:16.447Z,8.35
2019-05-13T11:46:43.376Z,7.25
2019-05-13T11:49:12.630Z,7.97
2019-05-13T11:51:42.656Z,10.13
2019-05-13T11:54:13.881Z,7.28
2019-05-13T11:56:49.475Z,9.65
2019-05-13T11:59:14.709Z,7.55
2019-05-13T12:01:44.129Z,5.83
2019-05-13T12:04:13.330Z,6.00
2019-05-13T12:06:47.880Z,8.78
2019-05-13T12:09:13.504Z,6.50
2019-05-13T12:11:42.615Z,5.70
2019-05-13T12:14:37.249Z,8.90
2019-05-13T12:16:42.657Z,6.85
2019-05-13T12:19:12.081Z,8.75
2019-05-13T12:21:45.914Z,7.12
2019-05-13T12:24:12.462Z,6.37
2019-05-13T12:26:43.449Z,4.83
2019-05-13T12:29:18.537Z,6.28
2019-05-13T12:31:43.296Z,7.15
2019-05-13T12:34:13.373Z,8.88
2019-05-13T12:36:43.502Z,7.85
2019-05-13T12:39:14.343Z,7.85
2019-05-13T12:41:43.861Z,5.60
2019-05-13T12:44:13.426Z,6.10
2019-05-13T12:46:49.915Z,6.78
2019-05-13T12:49:14.869Z,6.08
2019-05-13T12:51:44.355Z,6.85
2019-05-13T12:54:14.298Z,6.28
2019-05-13T12:56:44.104Z,8.33
2019-05-13T12:59:13.641Z,7.15
2019-05-13T13:01:42.787Z,7.17
2019-05-13T13:04:12.576Z,8.70
2019-05-13T13:06:45.380Z,10.53
2019-05-13T13:09:13.249Z,6.47
2019-05-13T13:11:43.956Z,5.47
2019-05-13T13:14:15.633Z,6.37
2019-05-13T13:16:44.897Z,6.33
2019-05-13T13:19:15.057Z,10.23
2019-05-13T13:21:44.650Z,7.20
2019-05-13T13:24:13.908Z,6.33
2019-05-13T13:26:43.092Z,10.35
2019-05-13T13:29:12.685Z,7.37
2019-05-13T13:31:43.129Z,9.75
2019-05-13T13:34:18.061Z,8.63
2019-05-13T13:36:46.132Z,11.57
2019-05-13T13:39:15.279Z,8.15
2019-05-13T13:41:44.569Z,8.08
2019-05-13T13:44:13.695Z,8.23
2019-05-13T13:46:49.078Z,10.85
2019-05-13T13:49:13.983Z,5.40
2019-05-13T13:51:44.549Z,13.15
2019-05-13T13:54:14.086Z,6.62
2019-05-13T13:56:44.477Z,7.75
2019-05-13T13:59:14.492Z,6.67
2019-05-13T14:01:43.788Z,8.38
2019-05-13T14:04:16.452Z,10.03
2019-05-13T14:09:14.722Z,12.03
2019-05-13T14:11:44.147Z,8.88
2019-05-13T14:14:13.643Z,12.03
2019-05-13T14:16:46.512Z,8.50
2019-05-13T14:19:14.188Z,7.10
2019-05-13T14:21:43.392Z,8.78
2019-05-13T14:24:12.809Z,7.42
2019-05-13T14:26:43.488Z,10.95
2019-05-13T14:29:13.337Z,10.13
2019-05-13T14:31:43.149Z,7.12
2019-05-13T14:34:12.271Z,5.97
2019-05-13T14:36:41.205Z,9.25
2019-05-13T14:39:12.029Z,9.05
2019-05-13T14:41:42.578Z,14.23
2019-05-13T14:44:12.483Z,9.10
2019-05-13T14:46:46.987Z,9.75
2019-05-13T14:49:12.424Z,10.53
2019-05-13T14:51:41.687Z,8.70
2019-05-13T14:54:10.599Z,7.47
2019-05-13T15:37:03.438Z,8.33
2019-05-13T15:39:32.663Z,6.50
2019-05-13T15:44:47.043Z,8.35
2019-05-13T15:47:24.135Z,11.28
2019-05-13T15:49:47.617Z,11.28
2019-05-13T15:52:17.179Z,8.03
2019-05-13T15:54:46.348Z,10.75
2019-05-13T15:57:16.527Z,13.25
2019-05-13T15:59:45.743Z,10.03
2019-05-13T16:02:36.264Z,8.75
2019-05-13T16:05:06.403Z,8.18
2019-05-13T16:07:35.971Z,8.43
2019-05-13T16:10:06.828Z,6.10
2019-05-13T16:12:36.362Z,8.78
2019-05-13T16:15:12.410Z,7.62
2019-05-13T16:17:44.110Z,6.28
2019-05-13T16:20:11.643Z,8.80
2019-05-13T16:22:42.032Z,10.45
2019-05-13T16:25:12.054Z,12.45
2019-05-13T16:27:41.651Z,5.95
2019-05-13T16:30:12.473Z,8.03
2019-05-13T16:32:42.473Z,10.68
2019-05-13T16:35:13.692Z,7.62
2019-05-13T16:37:42.942Z,7.58
2019-05-13T16:40:12.278Z,7.90
2019-05-13T16:42:42.278Z,10.93
2019-05-13T16:45:12.596Z,11.55
2019-05-13T16:47:56.749Z,6.83
2019-05-13T16:50:13.058Z,9.63
2019-05-13T16:52:42.273Z,6.03
2019-05-13T16:55:12.880Z,7.60
2019-05-13T16:57:42.542Z,8.78
2019-05-13T17:00:11.778Z,7.70
2019-05-13T17:02:42.224Z,12.80
2019-05-13T17:05:12.273Z,6.45
2019-05-13T17:07:42.298Z,11.63
2019-05-13T17:10:12.517Z,6.70
2019-05-13T17:12:42.924Z,9.68
2019-05-13T17:15:13.122Z,9.98
2019-05-13T17:17:42.617Z,9.58
2019-05-13T17:20:12.718Z,10.35
2019-05-13T17:22:42.503Z,11.45
2019-05-13T17:25:12.630Z,13.60
2019-05-13T17:27:41.992Z,11.18
2019-05-13T17:30:11.483Z,9.30
2019-05-13T17:32:40.837Z,11.25
2019-05-13T17:35:11.660Z,8.53
2019-05-13T17:37:42.194Z,9.18
2019-05-13T17:40:11.818Z,8.10
2019-05-13T17:42:41.762Z,7.20
2019-05-13T17:45:11.489Z,8.85
2019-05-13T17:47:41.877Z,11.28
2019-05-13T17:50:11.811Z,6.92
2019-05-13T17:52:41.516Z,9.33
2019-05-13T17:55:11.746Z,10.53
2019-05-13T17:57:41.605Z,9.13
2019-05-13T18:00:10.754Z,6.75
2019-05-13T18:02:42.015Z,10.05
2019-05-13T18:05:12.116Z,11.40
2019-05-13T18:07:42.120Z,43.00
2019-05-13T18:10:14.230Z,7.28
2019-05-13T18:12:42.376Z,10.40
2019-05-13T18:15:11.875Z,9.80
2019-05-13T18:17:41.752Z,17.05
2019-05-13T18:20:11.068Z,12.33
2019-05-13T18:22:41.967Z,11.05
2019-05-13T18:25:12.025Z,9.07
2019-05-13T18:27:41.695Z,11.60
2019-05-13T18:30:11.458Z,10.35
2019-05-13T18:32:41.093Z,15.10
2019-05-13T18:35:12.045Z,9.40
2019-05-13T18:37:41.964Z,8.63
2019-05-13T18:40:11.674Z,6.37
2019-05-13T18:42:42.148Z,9.53
2019-05-13T18:45:11.991Z,7.17
2019-05-13T18:47:41.225Z,7.37
2019-05-13T18:50:11.532Z,7.17
2019-05-13T18:52:42.009Z,6.50
2019-05-13T18:55:12.383Z,9.80
2019-05-13T18:57:41.902Z,9.33
2019-05-13T19:00:11.828Z,6.78
2019-05-13T19:02:41.564Z,11.65
2019-05-13T19:05:11.849Z,7.60
2019-05-13T19:07:41.960Z,8.50
2019-05-13T19:10:11.543Z,6.58
2019-05-13T19:12:42.115Z,7.70
2019-05-13T19:15:11.649Z,9.60
2019-05-13T19:17:41.569Z,6.15
2019-05-13T19:20:11.681Z,9.93
2019-05-13T19:22:41.526Z,8.05
2019-05-13T19:25:11.861Z,10.25
2019-05-13T19:27:41.562Z,6.92
2019-05-13T19:30:12.106Z,18.27
2019-05-13T19:32:41.826Z,10.53
2019-05-13T19:35:11.885Z,9.25
2019-05-13T19:37:42.482Z,5.87
2019-05-13T19:40:13.014Z,7.53
2019-05-13T19:42:42.967Z,7.25
2019-05-13T19:45:12.022Z,9.95
2019-05-13T19:47:41.847Z,11.30
2019-05-13T19:50:11.189Z,8.60
2019-05-13T19:52:41.450Z,7.42
2019-05-13T19:55:12.058Z,8.03
2019-05-13T19:57:42.530Z,6.58
2019-05-13T20:00:14.169Z,9.83
2019-05-13T20:02:42.783Z,8.78
2019-05-13T20:05:12.163Z,8.10
2019-05-13T20:07:41.960Z,10.82
2019-05-13T20:10:12.030Z,9.33
2019-05-13T20:12:42.019Z,6.70
2019-05-13T20:15:11.858Z,8.15
2019-05-13T20:17:41.611Z,9.88
2019-05-13T20:20:12.355Z,9.53
2019-05-13T20:22:42.218Z,9.08
2019-05-13T20:25:13.165Z,6.92
2019-05-13T20:27:42.420Z,7.62
2019-05-13T20:30:11.811Z,8.73
2019-05-13T20:32:41.112Z,9.43
2019-05-13T20:35:11.450Z,8.43
2019-05-13T20:37:40.834Z,8.28
2019-05-13T20:40:11.603Z,8.70
2019-05-13T20:42:41.416Z,7.37
2019-05-13T20:45:11.534Z,8.63
2019-05-13T20:47:42.019Z,7.95
2019-05-13T20:50:12.375Z,10.03
2019-05-13T20:52:42.052Z,8.13
2019-05-13T20:55:11.182Z,10.28
2019-05-13T20:57:41.762Z,10.95
2019-05-13T21:00:11.599Z,8.25
2019-05-13T21:02:41.672Z,9.50
2019-05-13T21:05:12.131Z,9.40
2019-05-13T21:07:41.798Z,8.90
2019-05-13T21:10:12.161Z,9.18
2019-05-13T21:12:42.013Z,7.60
2019-05-13T21:15:12.955Z,11.10
2019-05-13T21:17:42.312Z,7.85
2019-05-13T21:20:19.452Z,7.40
2019-05-13T21:22:42.569Z,11.35
2019-05-13T21:25:11.419Z,8.65
2019-05-13T21:27:42.125Z,12.85
2019-05-13T21:30:11.961Z,9.33
2019-05-13T21:32:41.090Z,9.53
2019-05-13T21:35:11.881Z,10.25
2019-05-13T21:37:40.899Z,8.45
2019-05-13T21:40:11.171Z,7.50
2019-05-13T21:42:41.968Z,8.23
2019-05-13T21:45:11.549Z,8.78
2019-05-13T21:47:40.711Z,9.75
2019-05-13T21:50:11.566Z,8.35
2019-05-13T21:52:41.865Z,16.23
2019-05-13T21:55:11.517Z,15.80
2019-05-13T21:57:41.446Z,16.75
2019-05-13T22:00:12.282Z,12.55
2019-05-13T22:02:41.391Z,15.95
2019-05-13T22:05:11.644Z,15.65
2019-05-13T22:07:42.062Z,14.05
2019-05-13T22:10:11.142Z,16.35
2019-05-13T22:12:41.418Z,15.25
2019-05-13T22:15:10.677Z,17.67
2019-05-13T22:17:42.087Z,16.05
2019-05-13T22:20:12.170Z,15.80
2019-05-13T22:22:41.599Z,19.92
2019-05-13T22:25:12.125Z,28.27
2019-05-13T22:27:41.348Z,27.98
2019-05-13T22:30:11.840Z,30.72
2019-05-13T22:32:41.794Z,31.97
2019-05-13T22:35:11.210Z,25.30
2019-05-13T22:37:40.560Z,28.95
2019-05-13T22:40:11.236Z,20.05
2019-05-13T22:42:41.517Z,19.45
2019-05-13T22:45:11.732Z,17.32
2019-05-13T22:47:41.786Z,12.80
2019-05-13T22:50:12.260Z,14.18
2019-05-13T22:52:41.951Z,12.28
2019-05-13T22:55:11.534Z,9.75
2019-05-13T22:57:41.961Z,9.18
2019-05-13T23:00:11.852Z,11.80
2019-05-13T23:02:42.194Z,9.68
2019-05-13T23:05:11.453Z,8.95
2019-05-13T23:07:40.640Z,8.03
2019-05-13T23:10:11.859Z,9.13
2019-05-13T23:12:42.059Z,8.98
2019-05-13T23:15:11.911Z,10.75
2019-05-13T23:17:41.611Z,7.87
2019-05-13T23:20:10.519Z,8.08
2019-05-13T23:22:41.478Z,10.88
2019-05-13T23:25:12.168Z,16.45
2019-05-13T23:27:41.573Z,16.48
2019-05-13T23:30:11.696Z,13.25
2019-05-13T23:32:40.930Z,13.68
2019-05-13T23:35:11.150Z,21.17
2019-05-13T23:37:41.685Z,21.05
2019-05-13T23:40:11.883Z,16.07
2019-05-13T23:42:41.232Z,16.45
2019-05-13T23:45:11.431Z,12.50
2019-05-13T23:47:41.754Z,12.70
2019-05-13T23:50:12.532Z,11.90
2019-05-13T23:52:41.971Z,12.58
2019-05-13T23:55:11.112Z,9.93
2019-05-13T23:57:42.166Z,11.85
